sensor_id;sensor_type;location;lat;lon;timestamp;P1;durP1;ratioP1;P2;durP2;ratioP2
54921;SDS011;40824;45.116;21.296;2022-07-29T00:00:44;10.75;;;9.63;;
54921;SDS011;40824;45.116;21.296;2022-07-29T00:03:11;11.60;;;9.63;;
54921;SDS011;40824;45.116;21.296;2022-07-29T00:05:40;13.13;;;9.57;;
54921;SDS011;40824;45.116;21.296;2022-07-29T00:08:06;11.73;;;10.13;;
54921;SDS011;40824;45.116;21.296;2022-07-29T00:10:32;11.88;;;9.77;;
54921;SDS011;40824;45.116;21.296;2022-07-29T00:12:59;13.70;;;9.50;;
54921;SDS011;40824;45.116;21.296;2022-07-29T00:15:25;13.20;;;10.07;;
54921;SDS011;40824;45.116;21.296;2022-07-29T00:17:51;11.23;;;10.07;;
54921;SDS011;40824;45.116;21.296;2022-07-29T00:20:17;12.70;;;10.30;;
54921;SDS011;40824;45.116;21.296;2022-07-29T00:22:43;11.88;;;9.77;;
54921;SDS011;40824;45.116;21.296;2022-07-29T00:25:09;11.93;;;10.68;;
54921;SDS011;40824;45.116;21.296;2022-07-29T00:27:36;11.27;;;10.13;;
54921;SDS011;40824;45.116;21.296;2022-07-29T00:30:02;13.63;;;10.32;;
54921;SDS011;40824;45.116;21.296;2022-07-29T00:32:29;11.13;;;9.85;;
54921;SDS011;40824;45.116;21.296;2022-07-29T00:34:55;12.07;;;9.75;;
54921;SDS011;40824;45.116;21.296;2022-07-29T00:37:41;12.48;;;10.70;;
54921;SDS011;40824;45.116;21.296;2022-07-29T00:40:07;12.85;;;10.13;;
54921;SDS011;40824;45.116;21.296;2022-07-29T00:42:46;12.77;;;10.02;;
54921;SDS011;40824;45.116;21.296;2022-07-29T00:45:13;14.57;;;10.43;;
54921;SDS011;40824;45.116;21.296;2022-07-29T00:47:39;14.35;;;10.80;;
54921;SDS011;40824;45.116;21.296;2022-07-29T00:50:06;11.32;;;9.65;;
54921;SDS011;40824;45.116;21.296;2022-07-29T00:52:32;13.93;;;10.05;;
54921;SDS011;40824;45.116;21.296;2022-07-29T00:54:59;11.77;;;10.57;;
54921;SDS011;40824;45.116;21.296;2022-07-29T00:57:25;12.50;;;9.60;;
54921;SDS011;40824;45.116;21.296;2022-07-29T00:59:51;12.45;;;10.68;;
54921;SDS011;40824;45.116;21.296;2022-07-29T01:02:17;12.00;;;10.73;;
54921;SDS011;40824;45.116;21.296;2022-07-29T01:04:43;11.20;;;9.68;;
54921;SDS011;40824;45.116;21.296;2022-07-29T01:07:09;12.25;;;10.60;;
54921;SDS011;40824;45.116;21.296;2022-07-29T01:09:35;13.32;;;9.98;;
54921;SDS011;40824;45.116;21.296;2022-07-29T01:12:03;11.57;;;8.90;;
54921;SDS011;40824;45.116;21.296;2022-07-29T01:14:29;11.38;;;9.95;;
54921;SDS011;40824;45.116;21.296;2022-07-29T01:17:00;13.90;;;10.05;;
54921;SDS011;40824;45.116;21.296;2022-07-29T01:22:10;14.52;;;9.48;;
54921;SDS011;40824;45.116;21.296;2022-07-29T01:29:44;12.25;;;10.13;;
54921;SDS011;40824;45.116;21.296;2022-07-29T01:32:11;11.40;;;9.90;;
54921;SDS011;40824;45.116;21.296;2022-07-29T01:34:42;12.57;;;9.73;;
54921;SDS011;40824;45.116;21.296;2022-07-29T01:39:42;15.32;;;9.65;;
54921;SDS011;40824;45.116;21.296;2022-07-29T01:42:15;11.88;;;9.77;;
54921;SDS011;40824;45.116;21.296;2022-07-29T01:45:02;10.80;;;9.70;;
54921;SDS011;40824;45.116;21.296;2022-07-29T01:47:32;10.25;;;9.25;;
54921;SDS011;40824;45.116;21.296;2022-07-29T01:49:59;10.95;;;9.77;;
54921;SDS011;40824;45.116;21.296;2022-07-29T01:52:31;12.02;;;10.82;;
54921;SDS011;40824;45.116;21.296;2022-07-29T01:54:58;11.63;;;9.70;;
54921;SDS011;40824;45.116;21.296;2022-07-29T01:57:26;11.93;;;10.52;;
54921;SDS011;40824;45.116;21.296;2022-07-29T01:59:52;10.68;;;9.60;;
54921;SDS011;40824;45.116;21.296;2022-07-29T02:02:19;11.30;;;10.00;;
54921;SDS011;40824;45.116;21.296;2022-07-29T02:04:46;10.45;;;9.35;;
54921;SDS011;40824;45.116;21.296;2022-07-29T02:07:15;9.98;;;9.07;;
54921;SDS011;40824;45.116;21.296;2022-07-29T02:09:43;11.00;;;9.90;;
54921;SDS011;40824;45.116;21.296;2022-07-29T02:12:09;11.10;;;9.45;;
54921;SDS011;40824;45.116;21.296;2022-07-29T02:14:37;11.23;;;10.13;;
54921;SDS011;40824;45.116;21.296;2022-07-29T02:17:03;11.77;;;9.07;;
54921;SDS011;40824;45.116;21.296;2022-07-29T02:19:31;11.13;;;10.00;;
54921;SDS011;40824;45.116;21.296;2022-07-29T02:21:57;11.52;;;9.88;;
54921;SDS011;40824;45.116;21.296;2022-07-29T02:24:24;11.90;;;9.88;;
54921;SDS011;40824;45.116;21.296;2022-07-29T02:26:51;10.13;;;9.13;;
54921;SDS011;40824;45.116;21.296;2022-07-29T02:29:19;10.98;;;9.88;;
54921;SDS011;40824;45.116;21.296;2022-07-29T02:31:46;11.15;;;9.18;;
54921;SDS011;40824;45.116;21.296;2022-07-29T02:34:13;10.82;;;9.48;;
54921;SDS011;40824;45.116;21.296;2022-07-29T02:36:41;10.93;;;9.77;;
54921;SDS011;40824;45.116;21.296;2022-07-29T02:39:08;11.57;;;9.40;;
54921;SDS011;40824;45.116;21.296;2022-07-29T02:44:12;10.32;;;9.30;;
54921;SDS011;40824;45.116;21.296;2022-07-29T02:46:44;10.25;;;9.27;;
54921;SDS011;40824;45.116;21.296;2022-07-29T02:51:51;10.93;;;9.85;;
54921;SDS011;40824;45.116;21.296;2022-07-29T02:54:37;11.68;;;9.77;;
54921;SDS011;40824;45.116;21.296;2022-07-29T02:57:06;9.82;;;8.93;;
54921;SDS011;40824;45.116;21.296;2022-07-29T02:59:35;10.05;;;9.07;;
54921;SDS011;40824;45.116;21.296;2022-07-29T03:02:02;12.65;;;9.25;;
54921;SDS011;40824;45.116;21.296;2022-07-29T03:04:30;10.43;;;9.32;;
54921;SDS011;40824;45.116;21.296;2022-07-29T03:06:58;10.30;;;9.30;;
54921;SDS011;40824;45.116;21.296;2022-07-29T03:09:24;10.43;;;9.38;;
54921;SDS011;40824;45.116;21.296;2022-07-29T03:11:51;10.13;;;8.82;;
54921;SDS011;40824;45.116;21.296;2022-07-29T03:14:19;9.65;;;8.75;;
54921;SDS011;40824;45.116;21.296;2022-07-29T03:16:45;10.00;;;8.75;;
54921;SDS011;40824;45.116;21.296;2022-07-29T03:19:12;12.57;;;9.07;;
54921;SDS011;40824;45.116;21.296;2022-07-29T03:21:38;10.95;;;8.90;;
54921;SDS011;40824;45.116;21.296;2022-07-29T03:24:04;12.15;;;9.18;;
54921;SDS011;40824;45.116;21.296;2022-07-29T03:26:30;10.00;;;8.88;;
54921;SDS011;40824;45.116;21.296;2022-07-29T03:28:56;9.90;;;7.85;;
54921;SDS011;40824;45.116;21.296;2022-07-29T03:31:23;10.23;;;9.20;;
54921;SDS011;40824;45.116;21.296;2022-07-29T03:33:49;10.55;;;9.10;;
54921;SDS011;40824;45.116;21.296;2022-07-29T03:36:15;9.73;;;8.32;;
54921;SDS011;40824;45.116;21.296;2022-07-29T03:38:41;9.32;;;7.97;;
54921;SDS011;40824;45.116;21.296;2022-07-29T03:41:09;9.13;;;8.02;;
54921;SDS011;40824;45.116;21.296;2022-07-29T03:43:37;11.15;;;8.65;;
54921;SDS011;40824;45.116;21.296;2022-07-29T03:46:03;10.27;;;9.10;;
54921;SDS011;40824;45.116;21.296;2022-07-29T03:48:30;9.38;;;8.48;;
54921;SDS011;40824;45.116;21.296;2022-07-29T03:50:58;10.65;;;8.57;;
54921;SDS011;40824;45.116;21.296;2022-07-29T03:53:24;10.55;;;8.02;;
54921;SDS011;40824;45.116;21.296;2022-07-29T03:55:52;9.63;;;8.30;;
54921;SDS011;40824;45.116;21.296;2022-07-29T03:58:19;9.45;;;8.55;;
54921;SDS011;40824;45.116;21.296;2022-07-29T04:00:46;9.82;;;8.63;;
54921;SDS011;40824;45.116;21.296;2022-07-29T04:03:12;9.18;;;8.27;;
54921;SDS011;40824;45.116;21.296;2022-07-29T04:05:38;9.85;;;8.88;;
54921;SDS011;40824;45.116;21.296;2022-07-29T04:08:07;9.70;;;8.70;;
54921;SDS011;40824;45.116;21.296;2022-07-29T04:10:33;10.55;;;8.25;;
54921;SDS011;40824;45.116;21.296;2022-07-29T04:13:00;9.15;;;8.20;;
54921;SDS011;40824;45.116;21.296;2022-07-29T04:15:26;8.82;;;7.82;;
54921;SDS011;40824;45.116;21.296;2022-07-29T04:17:53;11.75;;;8.25;;
54921;SDS011;40824;45.116;21.296;2022-07-29T04:20:19;13.40;;;9.00;;
54921;SDS011;40824;45.116;21.296;2022-07-29T04:22:45;12.02;;;9.30;;
54921;SDS011;40824;45.116;21.296;2022-07-29T04:25:13;12.43;;;8.90;;
54921;SDS011;40824;45.116;21.296;2022-07-29T04:27:39;11.07;;;9.10;;
54921;SDS011;40824;45.116;21.296;2022-07-29T04:30:25;10.35;;;8.63;;
54921;SDS011;40824;45.116;21.296;2022-07-29T04:32:51;9.95;;;8.98;;
54921;SDS011;40824;45.116;21.296;2022-07-29T04:35:17;9.73;;;8.65;;
54921;SDS011;40824;45.116;21.296;2022-07-29T04:37:59;9.77;;;8.77;;
54921;SDS011;40824;45.116;21.296;2022-07-29T04:43:23;10.90;;;9.07;;
54921;SDS011;40824;45.116;21.296;2022-07-29T04:46:15;12.93;;;9.80;;
54921;SDS011;40824;45.116;21.296;2022-07-29T04:48:44;11.27;;;8.85;;
54921;SDS011;40824;45.116;21.296;2022-07-29T04:51:11;10.30;;;8.75;;
54921;SDS011;40824;45.116;21.296;2022-07-29T04:53:37;12.48;;;9.95;;
54921;SDS011;40824;45.116;21.296;2022-07-29T04:56:03;12.55;;;10.32;;
54921;SDS011;40824;45.116;21.296;2022-07-29T04:58:29;16.80;;;11.18;;
54921;SDS011;40824;45.116;21.296;2022-07-29T05:00:55;15.18;;;11.30;;
54921;SDS011;40824;45.116;21.296;2022-07-29T05:03:21;13.77;;;10.60;;
54921;SDS011;40824;45.116;21.296;2022-07-29T05:05:48;14.27;;;10.93;;
54921;SDS011;40824;45.116;21.296;2022-07-29T05:08:14;15.82;;;11.45;;
54921;SDS011;40824;45.116;21.296;2022-07-29T05:10:40;12.75;;;10.70;;
54921;SDS011;40824;45.116;21.296;2022-07-29T05:13:06;12.35;;;9.52;;
54921;SDS011;40824;45.116;21.296;2022-07-29T05:15:35;10.10;;;9.15;;
54921;SDS011;40824;45.116;21.296;2022-07-29T05:18:02;9.25;;;8.38;;
54921;SDS011;40824;45.116;21.296;2022-07-29T05:20:28;9.15;;;8.25;;
54921;SDS011;40824;45.116;21.296;2022-07-29T05:22:55;15.65;;;9.20;;
54921;SDS011;40824;45.116;21.296;2022-07-29T05:25:22;9.20;;;8.23;;
54921;SDS011;40824;45.116;21.296;2022-07-29T05:27:48;8.95;;;8.05;;
54921;SDS011;40824;45.116;21.296;2022-07-29T05:30:14;10.55;;;8.45;;
54921;SDS011;40824;45.116;21.296;2022-07-29T05:32:41;9.48;;;8.45;;
54921;SDS011;40824;45.116;21.296;2022-07-29T05:35:07;10.23;;;8.45;;
54921;SDS011;40824;45.116;21.296;2022-07-29T05:37:33;12.50;;;8.65;;
54921;SDS011;40824;45.116;21.296;2022-07-29T05:39:59;12.68;;;8.77;;
54921;SDS011;40824;45.116;21.296;2022-07-29T05:42:25;11.80;;;8.82;;
54921;SDS011;40824;45.116;21.296;2022-07-29T05:44:52;10.77;;;8.55;;
54921;SDS011;40824;45.116;21.296;2022-07-29T05:47:18;10.15;;;9.18;;
54921;SDS011;40824;45.116;21.296;2022-07-29T05:49:44;10.05;;;9.05;;
54921;SDS011;40824;45.116;21.296;2022-07-29T05:52:11;10.80;;;8.55;;
54921;SDS011;40824;45.116;21.296;2022-07-29T05:54:38;15.10;;;8.52;;
54921;SDS011;40824;45.116;21.296;2022-07-29T05:57:04;13.48;;;9.40;;
54921;SDS011;40824;45.116;21.296;2022-07-29T05:59:31;16.00;;;9.38;;
54921;SDS011;40824;45.116;21.296;2022-07-29T06:01:57;10.93;;;8.82;;
54921;SDS011;40824;45.116;21.296;2022-07-29T06:04:23;10.73;;;9.20;;
54921;SDS011;40824;45.116;21.296;2022-07-29T06:06:49;15.43;;;9.77;;
54921;SDS011;40824;45.116;21.296;2022-07-29T06:09:15;13.73;;;9.13;;
54921;SDS011;40824;45.116;21.296;2022-07-29T06:11:41;14.45;;;9.43;;
54921;SDS011;40824;45.116;21.296;2022-07-29T06:14:07;10.88;;;8.13;;
54921;SDS011;40824;45.116;21.296;2022-07-29T06:16:35;9.93;;;9.00;;
54921;SDS011;40824;45.116;21.296;2022-07-29T06:19:01;10.43;;;8.52;;
54921;SDS011;40824;45.116;21.296;2022-07-29T06:21:27;12.35;;;8.38;;
54921;SDS011;40824;45.116;21.296;2022-07-29T06:23:53;12.27;;;9.00;;
54921;SDS011;40824;45.116;21.296;2022-07-29T06:26:19;10.20;;;8.43;;
54921;SDS011;40824;45.116;21.296;2022-07-29T06:28:46;13.40;;;8.50;;
54921;SDS011;40824;45.116;21.296;2022-07-29T06:31:12;12.55;;;8.25;;
54921;SDS011;40824;45.116;21.296;2022-07-29T06:33:38;14.23;;;9.00;;
54921;SDS011;40824;45.116;21.296;2022-07-29T06:36:04;10.85;;;8.70;;
54921;SDS011;40824;45.116;21.296;2022-07-29T06:38:31;10.65;;;8.40;;
54921;SDS011;40824;45.116;21.296;2022-07-29T06:40:57;10.80;;;8.80;;
54921;SDS011;40824;45.116;21.296;2022-07-29T06:43:31;14.57;;;9.52;;
54921;SDS011;40824;45.116;21.296;2022-07-29T06:46:00;11.07;;;9.02;;
54921;SDS011;40824;45.116;21.296;2022-07-29T06:48:27;12.52;;;9.57;;
54921;SDS011;40824;45.116;21.296;2022-07-29T06:50:53;10.95;;;8.80;;
54921;SDS011;40824;45.116;21.296;2022-07-29T06:53:19;12.75;;;8.60;;
54921;SDS011;40824;45.116;21.296;2022-07-29T06:55:46;10.23;;;8.32;;
54921;SDS011;40824;45.116;21.296;2022-07-29T06:58:12;10.48;;;8.57;;
54921;SDS011;40824;45.116;21.296;2022-07-29T07:00:40;10.23;;;8.68;;
54921;SDS011;40824;45.116;21.296;2022-07-29T07:03:06;11.70;;;8.80;;
54921;SDS011;40824;45.116;21.296;2022-07-29T07:05:33;13.77;;;8.82;;
54921;SDS011;40824;45.116;21.296;2022-07-29T07:07:59;10.30;;;8.43;;
54921;SDS011;40824;45.116;21.296;2022-07-29T07:10:25;12.20;;;9.05;;
54921;SDS011;40824;45.116;21.296;2022-07-29T07:12:51;9.82;;;8.65;;
54921;SDS011;40824;45.116;21.296;2022-07-29T07:15:17;9.35;;;8.45;;
54921;SDS011;40824;45.116;21.296;2022-07-29T07:17:47;9.30;;;8.30;;
54921;SDS011;40824;45.116;21.296;2022-07-29T07:20:13;9.68;;;8.73;;
54921;SDS011;40824;45.116;21.296;2022-07-29T07:22:39;8.52;;;7.70;;
54921;SDS011;40824;45.116;21.296;2022-07-29T07:25:06;11.45;;;8.52;;
54921;SDS011;40824;45.116;21.296;2022-07-29T07:27:32;9.55;;;7.55;;
54921;SDS011;40824;45.116;21.296;2022-07-29T07:29:58;9.15;;;8.20;;
54921;SDS011;40824;45.116;21.296;2022-07-29T07:32:24;9.18;;;8.18;;
54921;SDS011;40824;45.116;21.296;2022-07-29T07:34:50;9.65;;;8.70;;
54921;SDS011;40824;45.116;21.296;2022-07-29T07:37:16;9.88;;;8.02;;
54921;SDS011;40824;45.116;21.296;2022-07-29T07:39:44;8.63;;;7.72;;
54921;SDS011;40824;45.116;21.296;2022-07-29T07:42:10;11.45;;;8.60;;
54921;SDS011;40824;45.116;21.296;2022-07-29T07:44:38;8.82;;;7.80;;
54921;SDS011;40824;45.116;21.296;2022-07-29T07:47:04;9.13;;;7.97;;
54921;SDS011;40824;45.116;21.296;2022-07-29T07:49:30;9.20;;;8.27;;
54921;SDS011;40824;45.116;21.296;2022-07-29T07:51:57;8.30;;;7.50;;
54921;SDS011;40824;45.116;21.296;2022-07-29T07:54:23;9.18;;;7.90;;
54921;SDS011;40824;45.116;21.296;2022-07-29T07:56:49;9.77;;;8.52;;
54921;SDS011;40824;45.116;21.296;2022-07-29T07:59:15;9.57;;;8.32;;
54921;SDS011;40824;45.116;21.296;2022-07-29T08:01:41;9.05;;;7.50;;
54921;SDS011;40824;45.116;21.296;2022-07-29T08:04:08;10.25;;;8.25;;
54921;SDS011;40824;45.116;21.296;2022-07-29T08:06:34;8.63;;;7.80;;
54921;SDS011;40824;45.116;21.296;2022-07-29T08:09:03;11.30;;;8.48;;
54921;SDS011;40824;45.116;21.296;2022-07-29T08:11:29;9.30;;;7.50;;
54921;SDS011;40824;45.116;21.296;2022-07-29T08:13:55;9.07;;;7.18;;
54921;SDS011;40824;45.116;21.296;2022-07-29T08:16:22;9.57;;;8.02;;
54921;SDS011;40824;45.116;21.296;2022-07-29T08:18:50;8.25;;;7.45;;
54921;SDS011;40824;45.116;21.296;2022-07-29T08:21:16;8.75;;;7.78;;
54921;SDS011;40824;45.116;21.296;2022-07-29T08:23:43;8.63;;;7.72;;
54921;SDS011;40824;45.116;21.296;2022-07-29T08:26:15;8.85;;;7.70;;
54921;SDS011;40824;45.116;21.296;2022-07-29T08:28:42;8.85;;;7.95;;
54921;SDS011;40824;45.116;21.296;2022-07-29T08:31:14;7.85;;;7.05;;
54921;SDS011;40824;45.116;21.296;2022-07-29T08:33:41;8.77;;;7.53;;
54921;SDS011;40824;45.116;21.296;2022-07-29T08:36:07;9.13;;;8.23;;
54921;SDS011;40824;45.116;21.296;2022-07-29T08:38:33;8.40;;;7.60;;
54921;SDS011;40824;45.116;21.296;2022-07-29T08:41:00;10.75;;;7.45;;
54921;SDS011;40824;45.116;21.296;2022-07-29T08:43:29;8.60;;;7.68;;
54921;SDS011;40824;45.116;21.296;2022-07-29T08:45:55;8.38;;;7.47;;
54921;SDS011;40824;45.116;21.296;2022-07-29T08:48:23;13.85;;;7.90;;
54921;SDS011;40824;45.116;21.296;2022-07-29T08:50:50;15.18;;;8.00;;
54921;SDS011;40824;45.116;21.296;2022-07-29T08:53:18;10.98;;;7.38;;
54921;SDS011;40824;45.116;21.296;2022-07-29T08:55:45;12.73;;;7.68;;
54921;SDS011;40824;45.116;21.296;2022-07-29T08:58:11;15.80;;;7.95;;
54921;SDS011;40824;45.116;21.296;2022-07-29T09:00:43;13.48;;;7.00;;
54921;SDS011;40824;45.116;21.296;2022-07-29T09:03:12;9.90;;;7.67;;
54921;SDS011;40824;45.116;21.296;2022-07-29T09:05:46;11.43;;;7.85;;
54921;SDS011;40824;45.116;21.296;2022-07-29T09:08:13;10.77;;;7.70;;
54921;SDS011;40824;45.116;21.296;2022-07-29T09:10:39;12.85;;;7.65;;
54921;SDS011;40824;45.116;21.296;2022-07-29T09:13:05;11.40;;;7.30;;
54921;SDS011;40824;45.116;21.296;2022-07-29T09:15:31;8.43;;;7.25;;
54921;SDS011;40824;45.116;21.296;2022-07-29T09:17:57;8.88;;;6.90;;
54921;SDS011;40824;45.116;21.296;2022-07-29T09:20:25;8.20;;;6.93;;
54921;SDS011;40824;45.116;21.296;2022-07-29T09:23:11;9.02;;;7.00;;
54921;SDS011;40824;45.116;21.296;2022-07-29T09:25:38;10.02;;;7.13;;
54921;SDS011;40824;45.116;21.296;2022-07-29T09:28:15;7.78;;;6.93;;
54921;SDS011;40824;45.116;21.296;2022-07-29T09:30:54;7.70;;;6.60;;
54921;SDS011;40824;45.116;21.296;2022-07-29T09:33:21;8.38;;;6.60;;
54921;SDS011;40824;45.116;21.296;2022-07-29T09:36:09;10.57;;;7.13;;
54921;SDS011;40824;45.116;21.296;2022-07-29T09:38:33;7.95;;;6.95;;
54921;SDS011;40824;45.116;21.296;2022-07-29T09:41:01;8.10;;;6.70;;
54921;SDS011;40824;45.116;21.296;2022-07-29T09:43:27;7.07;;;6.20;;
54921;SDS011;40824;45.116;21.296;2022-07-29T09:45:53;7.88;;;6.40;;
54921;SDS011;40824;45.116;21.296;2022-07-29T09:48:20;8.73;;;6.63;;
54921;SDS011;40824;45.116;21.296;2022-07-29T09:50:47;7.78;;;6.88;;
54921;SDS011;40824;45.116;21.296;2022-07-29T09:55:59;8.57;;;6.90;;
54921;SDS011;40824;45.116;21.296;2022-07-29T09:58:26;7.35;;;6.65;;
54921;SDS011;40824;45.116;21.296;2022-07-29T10:00:53;7.90;;;6.32;;
54921;SDS011;40824;45.116;21.296;2022-07-29T10:03:20;7.43;;;6.72;;
54921;SDS011;40824;45.116;21.296;2022-07-29T10:05:47;7.82;;;7.03;;
54921;SDS011;40824;45.116;21.296;2022-07-29T10:08:29;9.80;;;6.55;;
54921;SDS011;40824;45.116;21.296;2022-07-29T10:11:08;8.13;;;6.63;;
54921;SDS011;40824;45.116;21.296;2022-07-29T10:13:34;9.02;;;6.88;;
54921;SDS011;40824;45.116;21.296;2022-07-29T10:16:00;7.15;;;6.45;;
54921;SDS011;40824;45.116;21.296;2022-07-29T10:18:26;7.88;;;7.07;;
54921;SDS011;40824;45.116;21.296;2022-07-29T10:20:52;7.57;;;6.82;;
54921;SDS011;40824;45.116;21.296;2022-07-29T10:23:18;7.22;;;6.50;;
54921;SDS011;40824;45.116;21.296;2022-07-29T10:25:45;7.35;;;6.55;;
54921;SDS011;40824;45.116;21.296;2022-07-29T10:28:11;7.28;;;6.57;;
54921;SDS011;40824;45.116;21.296;2022-07-29T10:30:38;7.45;;;6.13;;
54921;SDS011;40824;45.116;21.296;2022-07-29T10:38:33;8.48;;;6.28;;
54921;SDS011;40824;45.116;21.296;2022-07-29T10:41:16;6.30;;;5.70;;
54921;SDS011;40824;45.116;21.296;2022-07-29T10:44:00;6.97;;;6.10;;
54921;SDS011;40824;45.116;21.296;2022-07-29T10:46:27;8.65;;;6.90;;
54921;SDS011;40824;45.116;21.296;2022-07-29T10:56:51;6.97;;;6.28;;
54921;SDS011;40824;45.116;21.296;2022-07-29T11:01:46;7.55;;;6.40;;
54921;SDS011;40824;45.116;21.296;2022-07-29T11:04:12;12.70;;;7.07;;
54921;SDS011;40824;45.116;21.296;2022-07-29T11:09:24;7.78;;;6.35;;
54921;SDS011;40824;45.116;21.296;2022-07-29T11:11:50;7.32;;;6.25;;
54921;SDS011;40824;45.116;21.296;2022-07-29T11:14:17;9.02;;;6.65;;
54921;SDS011;40824;45.116;21.296;2022-07-29T11:17:03;8.07;;;6.25;;
54921;SDS011;40824;45.116;21.296;2022-07-29T11:19:29;8.32;;;6.68;;
54921;SDS011;40824;45.116;21.296;2022-07-29T11:21:56;7.50;;;6.18;;
54921;SDS011;40824;45.116;21.296;2022-07-29T11:24:24;9.18;;;6.10;;
54921;SDS011;40824;45.116;21.296;2022-07-29T11:27:09;7.35;;;6.55;;
54921;SDS011;40824;45.116;21.296;2022-07-29T11:29:35;8.38;;;6.47;;
54921;SDS011;40824;45.116;21.296;2022-07-29T11:32:08;8.45;;;6.40;;
54921;SDS011;40824;45.116;21.296;2022-07-29T11:34:34;8.95;;;6.18;;
54921;SDS011;40824;45.116;21.296;2022-07-29T11:39:31;8.23;;;6.45;;
54921;SDS011;40824;45.116;21.296;2022-07-29T11:42:36;7.07;;;6.00;;
54921;SDS011;40824;45.116;21.296;2022-07-29T11:47:30;7.72;;;6.30;;
54921;SDS011;40824;45.116;21.296;2022-07-29T11:49:57;6.60;;;5.93;;
54921;SDS011;40824;45.116;21.296;2022-07-29T11:52:24;7.07;;;6.32;;
54921;SDS011;40824;45.116;21.296;2022-07-29T11:54:57;7.07;;;6.00;;
54921;SDS011;40824;45.116;21.296;2022-07-29T11:57:23;6.57;;;5.97;;
54921;SDS011;40824;45.116;21.296;2022-07-29T11:59:51;7.97;;;6.38;;
54921;SDS011;40824;45.116;21.296;2022-07-29T12:02:18;6.75;;;6.05;;
54921;SDS011;40824;45.116;21.296;2022-07-29T12:04:56;7.30;;;6.35;;
54921;SDS011;40824;45.116;21.296;2022-07-29T12:07:31;8.10;;;6.72;;
54921;SDS011;40824;45.116;21.296;2022-07-29T12:12:23;10.85;;;7.72;;
54921;SDS011;40824;45.116;21.296;2022-07-29T12:14:50;8.88;;;7.03;;
54921;SDS011;40824;45.116;21.296;2022-07-29T12:17:26;10.18;;;8.23;;
54921;SDS011;40824;45.116;21.296;2022-07-29T12:19:55;13.20;;;9.75;;
54921;SDS011;40824;45.116;21.296;2022-07-29T12:22:25;10.35;;;9.35;;
54921;SDS011;40824;45.116;21.296;2022-07-29T12:24:52;10.95;;;8.65;;
54921;SDS011;40824;45.116;21.296;2022-07-29T12:27:19;10.32;;;8.23;;
54921;SDS011;40824;45.116;21.296;2022-07-29T12:29:54;9.00;;;8.10;;
54921;SDS011;40824;45.116;21.296;2022-07-29T12:32:21;9.52;;;8.07;;
54921;SDS011;40824;45.116;21.296;2022-07-29T12:34:47;9.82;;;7.57;;
54921;SDS011;40824;45.116;21.296;2022-07-29T12:37:13;8.25;;;7.10;;
54921;SDS011;40824;45.116;21.296;2022-07-29T12:39:39;8.25;;;7.38;;
54921;SDS011;40824;45.116;21.296;2022-07-29T12:42:15;9.18;;;6.97;;
54921;SDS011;40824;45.116;21.296;2022-07-29T12:44:46;8.98;;;6.90;;
54921;SDS011;40824;45.116;21.296;2022-07-29T12:47:12;8.10;;;7.30;;
54921;SDS011;40824;45.116;21.296;2022-07-29T12:49:39;9.40;;;6.80;;
54921;SDS011;40824;45.116;21.296;2022-07-29T12:54:50;7.70;;;6.90;;
54921;SDS011;40824;45.116;21.296;2022-07-29T12:57:16;7.10;;;6.40;;
54921;SDS011;40824;45.116;21.296;2022-07-29T12:59:42;7.90;;;6.72;;
54921;SDS011;40824;45.116;21.296;2022-07-29T13:02:19;8.07;;;7.28;;
54921;SDS011;40824;45.116;21.296;2022-07-29T13:04:54;7.78;;;6.90;;
54921;SDS011;40824;45.116;21.296;2022-07-29T13:07:23;8.10;;;6.82;;
54921;SDS011;40824;45.116;21.296;2022-07-29T13:09:50;8.02;;;7.13;;
54921;SDS011;40824;45.116;21.296;2022-07-29T13:12:16;7.03;;;6.20;;
54921;SDS011;40824;45.116;21.296;2022-07-29T13:14:51;11.50;;;7.07;;
54921;SDS011;40824;45.116;21.296;2022-07-29T13:17:21;7.05;;;6.35;;
54921;SDS011;40824;45.116;21.296;2022-07-29T13:20:13;7.05;;;6.38;;
54921;SDS011;40824;45.116;21.296;2022-07-29T13:22:40;7.72;;;6.90;;
54921;SDS011;40824;45.116;21.296;2022-07-29T13:25:07;7.95;;;6.43;;
54921;SDS011;40824;45.116;21.296;2022-07-29T13:27:34;8.48;;;7.00;;
54921;SDS011;40824;45.116;21.296;2022-07-29T13:30:07;7.95;;;6.45;;
54921;SDS011;40824;45.116;21.296;2022-07-29T13:32:34;8.27;;;6.57;;
54921;SDS011;40824;45.116;21.296;2022-07-29T13:35:05;8.13;;;6.82;;
54921;SDS011;40824;45.116;21.296;2022-07-29T13:37:32;7.15;;;6.30;;
54921;SDS011;40824;45.116;21.296;2022-07-29T13:39:59;7.18;;;6.45;;
54921;SDS011;40824;45.116;21.296;2022-07-29T13:42:28;8.45;;;6.72;;
54921;SDS011;40824;45.116;21.296;2022-07-29T13:44:54;9.07;;;6.78;;
54921;SDS011;40824;45.116;21.296;2022-07-29T13:47:20;8.68;;;6.72;;
54921;SDS011;40824;45.116;21.296;2022-07-29T13:49:47;7.93;;;6.22;;
54921;SDS011;40824;45.116;21.296;2022-07-29T13:52:13;7.22;;;6.53;;
54921;SDS011;40824;45.116;21.296;2022-07-29T13:54:40;9.02;;;7.05;;
54921;SDS011;40824;45.116;21.296;2022-07-29T13:57:06;8.77;;;6.97;;
54921;SDS011;40824;45.116;21.296;2022-07-29T13:59:33;7.80;;;6.38;;
54921;SDS011;40824;45.116;21.296;2022-07-29T14:01:59;7.03;;;6.10;;
54921;SDS011;40824;45.116;21.296;2022-07-29T14:04:25;7.45;;;6.68;;
54921;SDS011;40824;45.116;21.296;2022-07-29T14:06:51;9.00;;;6.40;;
54921;SDS011;40824;45.116;21.296;2022-07-29T14:09:17;7.82;;;7.03;;
54921;SDS011;40824;45.116;21.296;2022-07-29T14:11:43;7.10;;;6.43;;
54921;SDS011;40824;45.116;21.296;2022-07-29T14:14:11;7.35;;;6.35;;
54921;SDS011;40824;45.116;21.296;2022-07-29T14:16:37;6.85;;;6.15;;
54921;SDS011;40824;45.116;21.296;2022-07-29T14:19:03;7.18;;;6.35;;
54921;SDS011;40824;45.116;21.296;2022-07-29T14:21:29;7.45;;;6.45;;
54921;SDS011;40824;45.116;21.296;2022-07-29T14:23:55;7.80;;;6.90;;
54921;SDS011;40824;45.116;21.296;2022-07-29T14:26:21;7.45;;;6.40;;
54921;SDS011;40824;45.116;21.296;2022-07-29T14:28:48;6.93;;;6.32;;
54921;SDS011;40824;45.116;21.296;2022-07-29T14:31:14;6.70;;;6.00;;
54921;SDS011;40824;45.116;21.296;2022-07-29T14:33:41;7.72;;;6.65;;
54921;SDS011;40824;45.116;21.296;2022-07-29T14:36:07;7.68;;;6.72;;
54921;SDS011;40824;45.116;21.296;2022-07-29T14:38:34;7.55;;;6.70;;
54921;SDS011;40824;45.116;21.296;2022-07-29T14:41:00;7.57;;;6.75;;
54921;SDS011;40824;45.116;21.296;2022-07-29T14:43:26;6.65;;;6.03;;
54921;SDS011;40824;45.116;21.296;2022-07-29T14:45:53;7.05;;;6.30;;
54921;SDS011;40824;45.116;21.296;2022-07-29T14:48:19;6.93;;;6.22;;
54921;SDS011;40824;45.116;21.296;2022-07-29T14:50:45;7.75;;;6.95;;
54921;SDS011;40824;45.116;21.296;2022-07-29T14:53:11;7.47;;;6.65;;
54921;SDS011;40824;45.116;21.296;2022-07-29T14:55:38;6.97;;;6.28;;
54921;SDS011;40824;45.116;21.296;2022-07-29T14:58:04;7.28;;;6.45;;
54921;SDS011;40824;45.116;21.296;2022-07-29T15:00:30;7.32;;;6.63;;
54921;SDS011;40824;45.116;21.296;2022-07-29T15:02:58;6.90;;;6.20;;
54921;SDS011;40824;45.116;21.296;2022-07-29T15:05:25;7.00;;;6.30;;
54921;SDS011;40824;45.116;21.296;2022-07-29T15:07:51;6.88;;;6.10;;
54921;SDS011;40824;45.116;21.296;2022-07-29T15:10:17;6.80;;;6.00;;
54921;SDS011;40824;45.116;21.296;2022-07-29T15:12:43;6.65;;;6.03;;
54921;SDS011;40824;45.116;21.296;2022-07-29T15:15:09;8.20;;;6.43;;
54921;SDS011;40824;45.116;21.296;2022-07-29T15:17:35;6.60;;;5.93;;
54921;SDS011;40824;45.116;21.296;2022-07-29T15:20:01;7.47;;;6.70;;
54921;SDS011;40824;45.116;21.296;2022-07-29T15:22:27;6.75;;;6.07;;